createdAt,value
2022-09-17T00:01:31.449Z,60.20
2022-09-17T00:04:04.110Z,60.00
2022-09-17T00:06:33.850Z,60.00
2022-09-17T00:09:02.369Z,59.90
2022-09-17T00:11:33.996Z,60.20
2022-09-17T00:14:06.069Z,60.70
2022-09-17T00:16:36.134Z,60.70
2022-09-17T00:19:05.623Z,60.70
2022-09-17T00:21:34.051Z,60.60
2022-09-17T00:24:05.113Z,60.60
2022-09-17T00:26:34.137Z,60.70
2022-09-17T00:29:04.372Z,60.60
2022-09-17T00:31:32.810Z,61.00
2022-09-17T00:34:03.199Z,61.20
2022-09-17T00:36:31.461Z,61.30
2022-09-17T00:39:01.355Z,61.20
2022-09-17T00:41:32.624Z,61.40
2022-09-17T00:44:03.733Z,61.50
2022-09-17T00:46:37.175Z,61.50
2022-09-17T00:49:13.751Z,61.90
2022-09-17T00:51:46.651Z,62.10
2022-09-17T00:54:15.128Z,62.30
2022-09-17T00:56:44.156Z,62.00
2022-09-17T00:59:13.739Z,62.10
2022-09-17T01:01:42.002Z,62.50
2022-09-17T01:04:18.126Z,62.30
2022-09-17T01:06:59.263Z,62.90
2022-09-17T01:09:35.098Z,63.30
2022-09-17T01:12:18.746Z,63.10
2022-09-17T01:15:03.517Z,64.00
2022-09-17T01:17:38.784Z,64.00
2022-09-17T01:20:41.407Z,63.70
2022-09-17T01:23:40.476Z,64.50
2022-09-17T01:26:29.327Z,64.40
2022-09-17T01:29:05.609Z,64.40
2022-09-17T01:31:45.062Z,64.40
2022-09-17T01:34:23.274Z,64.50
2022-09-17T01:37:04.664Z,64.80
2022-09-17T01:39:40.654Z,64.80
2022-09-17T01:42:16.753Z,64.50
2022-09-17T01:44:53.474Z,64.60
2022-09-17T01:47:27.644Z,65.00
2022-09-17T01:50:02.247Z,65.10
2022-09-17T01:52:33.556Z,65.30
2022-09-17T01:55:06.987Z,65.10
2022-09-17T01:57:41.296Z,65.40
2022-09-17T02:00:12.045Z,65.50
2022-09-17T02:02:47.084Z,65.40
2022-09-17T02:05:20.571Z,65.90
2022-09-17T02:07:54.548Z,66.00
2022-09-17T02:10:27.454Z,66.20
2022-09-17T02:13:01.149Z,66.10
2022-09-17T02:15:33.976Z,66.50
2022-09-17T02:18:09.928Z,66.50
2022-09-17T02:20:44.761Z,67.00
2022-09-17T02:23:18.155Z,66.80
2022-09-17T02:25:50.354Z,66.80
2022-09-17T02:28:25.450Z,66.00
2022-09-17T02:30:53.596Z,66.30
2022-09-17T02:33:24.165Z,66.50
2022-09-17T02:35:52.559Z,67.20
2022-09-17T02:38:25.740Z,66.90
2022-09-17T02:41:00.707Z,67.80
2022-09-17T02:43:38.218Z,67.60
2022-09-17T02:46:17.163Z,68.00
2022-09-17T02:49:08.737Z,68.20
2022-09-17T02:51:48.688Z,68.40
2022-09-17T02:54:25.770Z,68.20
2022-09-17T02:57:04.603Z,68.00
2022-09-17T02:59:41.899Z,68.20
2022-09-17T03:02:17.663Z,68.10
2022-09-17T03:04:50.385Z,68.00
2022-09-17T03:07:21.030Z,68.00
2022-09-17T03:09:49.111Z,67.80
2022-09-17T03:12:17.623Z,67.60
2022-09-17T03:14:45.731Z,67.70
2022-09-17T03:17:14.905Z,67.80
2022-09-17T03:19:42.975Z,68.20
2022-09-17T03:22:12.743Z,68.10
2022-09-17T03:24:41.063Z,68.20
2022-09-17T03:27:09.116Z,68.30
2022-09-17T03:29:37.256Z,68.20
2022-09-17T03:32:05.679Z,68.40
2022-09-17T03:34:33.942Z,68.40
2022-09-17T03:37:02.323Z,68.20
2022-09-17T03:39:32.180Z,68.30
2022-09-17T03:42:00.446Z,68.40
2022-09-17T03:44:28.562Z,68.30
2022-09-17T03:46:56.766Z,68.60
2022-09-17T03:49:25.045Z,68.50
2022-09-17T03:51:53.163Z,68.60
2022-09-17T03:54:24.152Z,68.50
2022-09-17T03:56:53.670Z,68.50
2022-09-17T03:59:29.347Z,68.70
2022-09-17T04:01:57.973Z,68.50
2022-09-17T04:04:26.136Z,68.40
2022-09-17T04:06:54.573Z,68.40
2022-09-17T04:09:25.619Z,68.70
2022-09-17T04:11:56.362Z,68.60
2022-09-17T04:14:24.577Z,68.80
2022-09-17T04:16:52.865Z,68.80
2022-09-17T04:19:20.994Z,68.80
2022-09-17T04:21:49.081Z,69.00
2022-09-17T04:24:20.295Z,68.90
2022-09-17T04:26:48.471Z,69.40
2022-09-17T04:29:17.939Z,69.10
2022-09-17T04:31:46.240Z,69.40
2022-09-17T04:34:14.347Z,69.30
2022-09-17T04:36:42.378Z,69.40
2022-09-17T04:39:10.472Z,69.50
2022-09-17T04:41:38.586Z,69.60
2022-09-17T04:44:06.706Z,69.50
2022-09-17T04:46:36.299Z,69.60
2022-09-17T04:49:05.054Z,69.90
2022-09-17T04:51:33.142Z,69.80
2022-09-17T04:54:01.287Z,69.90
2022-09-17T04:56:29.350Z,70.10
2022-09-17T04:58:57.449Z,70.00
2022-09-17T05:01:25.616Z,70.10
2022-09-17T05:03:55.263Z,70.20
2022-09-17T05:06:23.320Z,70.50
2022-09-17T05:08:51.402Z,70.30
2022-09-17T05:11:19.471Z,70.50
2022-09-17T05:13:47.628Z,70.50
2022-09-17T05:16:15.840Z,70.60
2022-09-17T05:18:43.958Z,70.40
2022-09-17T05:21:13.531Z,70.40
2022-09-17T05:23:41.574Z,70.70
2022-09-17T05:26:09.718Z,70.50
2022-09-17T05:28:37.893Z,70.60
2022-09-17T05:31:06.327Z,70.40
2022-09-17T05:33:34.651Z,70.40
2022-09-17T05:36:03.142Z,70.40
2022-09-17T05:38:32.594Z,70.60
2022-09-17T05:41:04.596Z,70.80
2022-09-17T05:43:32.697Z,70.80
2022-09-17T05:46:03.305Z,70.80
2022-09-17T05:48:31.613Z,71.20
2022-09-17T05:50:59.684Z,71.00
2022-09-17T05:53:27.976Z,71.10
2022-09-17T05:55:59.714Z,71.10
2022-09-17T05:58:28.928Z,71.30
2022-09-17T06:00:57.033Z,71.00
2022-09-17T06:03:25.188Z,70.90
2022-09-17T06:05:55.490Z,70.70
2022-09-17T06:08:23.968Z,70.70
2022-09-17T06:10:52.369Z,70.60
2022-09-17T06:13:22.427Z,70.40
2022-09-17T06:15:54.763Z,70.70
2022-09-17T06:18:23.235Z,70.70
2022-09-17T06:20:55.975Z,70.40
2022-09-17T06:23:25.168Z,70.70
2022-09-17T06:25:55.040Z,70.20
2022-09-17T06:28:25.058Z,70.40
2022-09-17T06:30:54.632Z,70.60
2022-09-17T06:33:23.016Z,70.80
2022-09-17T06:35:56.947Z,70.60
2022-09-17T06:38:25.239Z,70.60
2022-09-17T06:40:53.739Z,70.50
2022-09-17T06:43:22.558Z,70.70
2022-09-17T06:45:55.960Z,70.70
2022-09-17T06:48:24.615Z,70.70
2022-09-17T06:50:54.365Z,70.30
2022-09-17T06:53:22.618Z,69.80
2022-09-17T06:55:51.550Z,69.80
2022-09-17T06:58:20.222Z,69.80
2022-09-17T07:00:48.389Z,69.70
2022-09-17T07:03:23.038Z,69.50
2022-09-17T07:05:51.536Z,69.40
2022-09-17T07:08:19.689Z,69.10
2022-09-17T07:10:48.155Z,68.90
2022-09-17T07:13:16.561Z,68.30
2022-09-17T07:15:44.734Z,68.30
2022-09-17T07:18:13.720Z,67.80
2022-09-17T07:20:43.330Z,67.50
2022-09-17T07:23:11.414Z,67.00
2022-09-17T07:25:39.548Z,66.60
2022-09-17T07:28:07.945Z,66.40
2022-09-17T07:30:36.048Z,66.60
2022-09-17T07:33:04.410Z,66.10
2022-09-17T07:35:32.515Z,65.20
2022-09-17T07:38:01.953Z,64.30
2022-09-17T07:40:30.062Z,63.60
2022-09-17T07:42:59.313Z,63.50
2022-09-17T07:45:27.472Z,62.80
2022-09-17T07:47:55.589Z,62.60
2022-09-17T07:50:23.744Z,62.30
2022-09-17T07:52:51.912Z,62.20
2022-09-17T07:55:21.403Z,61.80
2022-09-17T07:57:53.670Z,61.30
2022-09-17T08:00:21.807Z,61.30
2022-09-17T08:02:57.415Z,61.20
2022-09-17T08:05:26.454Z,60.20
2022-09-17T08:07:56.148Z,60.30
2022-09-17T08:10:27.200Z,60.00
2022-09-17T08:12:57.646Z,59.80
2022-09-17T08:15:27.185Z,60.00
2022-09-17T08:17:55.351Z,60.20
2022-09-17T08:20:26.112Z,60.20
2022-09-17T08:23:00.795Z,59.80
2022-09-17T08:25:30.682Z,58.80
2022-09-17T08:27:58.786Z,58.80
2022-09-17T08:30:26.907Z,58.70
2022-09-17T08:32:56.899Z,58.20
2022-09-17T08:35:26.231Z,57.90
2022-09-17T08:37:57.019Z,57.80
2022-09-17T08:40:27.839Z,57.10
2022-09-17T08:43:01.626Z,57.00
2022-09-17T08:45:30.780Z,56.60
2022-09-17T08:48:05.511Z,56.50
2022-09-17T08:50:39.177Z,55.70
2022-09-17T08:53:30.789Z,55.60
2022-09-17T08:56:03.232Z,54.60
2022-09-17T08:59:21.462Z,55.50
2022-09-17T09:02:00.655Z,55.20
2022-09-17T09:04:58.220Z,55.40
2022-09-17T09:07:29.141Z,55.20
2022-09-17T09:10:09.686Z,55.30
2022-09-17T09:12:40.014Z,53.40
2022-09-17T09:15:22.333Z,53.10
2022-09-17T09:17:52.345Z,51.90
2022-09-17T09:20:29.877Z,51.70
2022-09-17T09:23:04.622Z,51.10
2022-09-17T09:25:43.700Z,51.00
2022-09-17T09:28:30.960Z,50.30
2022-09-17T09:31:14.354Z,49.90
2022-09-17T09:33:47.849Z,50.60
2022-09-17T09:36:21.653Z,51.20
2022-09-17T09:38:57.735Z,51.50
2022-09-17T09:41:31.339Z,51.60
2022-09-17T09:44:05.245Z,52.00
2022-09-17T09:46:57.815Z,52.30
2022-09-17T09:49:41.330Z,52.40
2022-09-17T09:52:21.411Z,52.80
2022-09-17T09:55:03.943Z,53.30
2022-09-17T09:57:39.056Z,53.10
2022-09-17T10:00:29.158Z,53.20
2022-09-17T10:03:05.398Z,53.20
2022-09-17T10:05:33.774Z,53.40
2022-09-17T10:08:02.464Z,54.00
2022-09-17T10:10:30.940Z,54.00
2022-09-17T10:13:14.861Z,53.80
2022-09-17T10:15:43.040Z,52.80
2022-09-17T10:18:20.115Z,53.30
2022-09-17T10:20:53.210Z,52.30
2022-09-17T10:23:21.595Z,52.00
2022-09-17T10:25:52.110Z,53.40
2022-09-17T10:28:34.487Z,51.70
2022-09-17T10:31:08.698Z,49.50
2022-09-17T10:33:41.948Z,49.70
2022-09-17T10:36:14.813Z,47.60
2022-09-17T10:38:46.165Z,46.60
2022-09-17T10:41:21.916Z,46.60
2022-09-17T10:43:51.000Z,44.90
2022-09-17T10:46:27.230Z,44.80
2022-09-17T10:49:11.039Z,45.50
2022-09-17T10:51:40.159Z,44.40
2022-09-17T10:54:28.999Z,47.40
2022-09-17T10:56:59.984Z,44.70
2022-09-17T10:59:50.811Z,44.60
2022-09-17T11:02:50.627Z,43.70
2022-09-17T11:05:42.819Z,42.70
2022-09-17T11:08:18.087Z,42.10
2022-09-17T11:10:54.261Z,42.20
2022-09-17T11:13:32.139Z,42.00
2022-09-17T11:16:14.856Z,41.50
2022-09-17T11:18:46.738Z,41.40
2022-09-17T11:21:38.832Z,41.80
2022-09-17T11:24:46.731Z,40.50
2022-09-17T11:27:32.153Z,40.00
2022-09-17T11:30:13.694Z,39.00
2022-09-17T11:33:29.841Z,39.50
2022-09-17T11:36:01.097Z,40.10
2022-09-17T11:38:36.890Z,40.30
2022-09-17T11:41:09.240Z,40.00
2022-09-17T11:43:41.409Z,40.00
2022-09-17T11:46:13.774Z,40.20
2022-09-17T11:48:47.336Z,39.90
2022-09-17T11:51:25.877Z,39.20
2022-09-17T11:53:59.229Z,38.50
2022-09-17T11:56:31.539Z,37.60
2022-09-17T11:59:05.022Z,37.30
2022-09-17T12:01:38.384Z,37.10
2022-09-17T12:04:31.310Z,37.00
2022-09-17T12:07:03.986Z,35.90
2022-09-17T12:09:38.109Z,36.90
2022-09-17T12:12:26.397Z,37.40
2022-09-17T12:15:04.960Z,38.30
2022-09-17T12:17:40.264Z,38.90
2022-09-17T12:20:21.569Z,38.80
2022-09-17T12:22:50.461Z,39.30
2022-09-17T12:25:20.263Z,39.80
2022-09-17T12:27:56.530Z,40.50
2022-09-17T12:30:29.750Z,41.10
2022-09-17T12:33:11.879Z,41.20
2022-09-17T12:36:10.309Z,40.30
2022-09-17T12:39:17.274Z,40.20
2022-09-17T12:41:59.578Z,40.00
2022-09-17T12:44:52.439Z,39.20
2022-09-17T12:47:46.278Z,39.00
2022-09-17T12:50:21.534Z,38.70
2022-09-17T12:53:04.390Z,39.00
2022-09-17T12:55:42.023Z,39.40
2022-09-17T12:58:25.231Z,39.60
2022-09-17T13:00:57.117Z,39.50
2022-09-17T13:03:34.230Z,40.20
2022-09-17T13:06:33.879Z,40.70
2022-09-17T13:09:27.428Z,40.20
2022-09-17T13:12:04.783Z,40.20
2022-09-17T13:14:55.213Z,42.40
2022-09-17T13:17:32.380Z,40.10
2022-09-17T13:20:06.667Z,39.50
2022-09-17T13:22:44.222Z,38.60
2022-09-17T13:25:15.498Z,39.00
2022-09-17T13:27:45.472Z,37.80
2022-09-17T13:30:16.322Z,37.80
2022-09-17T13:32:49.919Z,37.30
2022-09-17T13:35:52.639Z,37.40
2022-09-17T13:38:24.005Z,38.50
2022-09-17T13:40:53.672Z,40.00
2022-09-17T13:43:27.576Z,40.60
2022-09-17T13:46:23.555Z,42.20
2022-09-17T13:48:56.875Z,42.50
2022-09-17T13:51:45.685Z,43.50
2022-09-17T13:54:15.036Z,43.60
2022-09-17T13:56:47.109Z,44.10
2022-09-17T13:59:19.170Z,44.70
2022-09-17T14:02:37.960Z,45.20
2022-09-17T14:05:39.400Z,45.60
2022-09-17T14:08:31.596Z,46.10
2022-09-17T14:11:02.491Z,45.70
2022-09-17T14:13:55.223Z,46.60
2022-09-17T14:16:38.621Z,46.20
2022-09-17T14:19:20.539Z,45.50
2022-09-17T14:22:00.397Z,45.70
2022-09-17T14:24:36.027Z,43.60
2022-09-17T14:27:32.671Z,43.30
2022-09-17T14:30:12.860Z,43.30
2022-09-17T14:32:48.423Z,43.20
2022-09-17T14:35:24.670Z,43.00
2022-09-17T14:37:57.451Z,42.50
2022-09-17T14:40:26.307Z,42.60
2022-09-17T14:42:57.144Z,42.50
2022-09-17T14:45:32.574Z,42.60
2022-09-17T14:48:21.043Z,42.90
2022-09-17T14:50:50.504Z,43.70
2022-09-17T14:53:21.054Z,44.10
2022-09-17T14:55:50.837Z,44.10
2022-09-17T14:58:33.397Z,44.00
2022-09-17T15:01:01.824Z,44.20
2022-09-17T15:03:29.914Z,44.40
2022-09-17T15:05:59.507Z,44.00
2022-09-17T15:08:30.266Z,43.70
2022-09-17T15:11:00.803Z,43.50
2022-09-17T15:13:31.234Z,43.30
2022-09-17T15:16:07.592Z,43.30
2022-09-17T15:18:39.137Z,43.50
2022-09-17T15:21:23.591Z,43.70
2022-09-17T15:23:55.791Z,43.80
2022-09-17T15:26:30.267Z,43.80
2022-09-17T15:28:59.573Z,44.20
2022-09-17T15:31:30.411Z,44.60
2022-09-17T15:34:01.185Z,44.80
2022-09-17T15:36:31.767Z,44.80
2022-09-17T15:39:00.510Z,44.70
2022-09-17T15:41:36.191Z,44.50
2022-09-17T15:44:28.455Z,44.20
2022-09-17T15:46:57.799Z,44.30
2022-09-17T15:49:32.218Z,44.50
2022-09-17T15:52:32.814Z,44.40
2022-09-17T15:55:01.427Z,44.90
2022-09-17T15:57:31.952Z,44.60
2022-09-17T16:00:09.518Z,45.00
2022-09-17T16:02:37.763Z,45.80
2022-09-17T16:05:50.860Z,46.40
2022-09-17T16:08:26.145Z,46.50
2022-09-17T16:10:54.382Z,46.30
2022-09-17T16:13:27.884Z,47.10
2022-09-17T16:15:57.286Z,47.40
2022-09-17T16:18:25.953Z,47.70
2022-09-17T16:20:54.088Z,48.20
2022-09-17T16:23:22.302Z,48.90
2022-09-17T16:25:52.832Z,49.70
2022-09-17T16:28:21.652Z,49.90
2022-09-17T16:30:50.667Z,50.50
2022-09-17T16:33:20.126Z,50.60
2022-09-17T16:35:48.200Z,50.60
2022-09-17T16:38:16.574Z,51.10
2022-09-17T16:40:47.317Z,51.50
2022-09-17T16:43:17.033Z,51.90
2022-09-17T16:45:45.435Z,52.30
2022-09-17T16:48:13.533Z,52.10
2022-09-17T16:50:43.115Z,52.70
2022-09-17T16:53:11.284Z,52.90
2022-09-17T16:55:40.099Z,53.10
2022-09-17T16:58:08.218Z,53.00
2022-09-17T17:00:38.144Z,53.00
2022-09-17T17:03:07.047Z,52.80
2022-09-17T17:05:38.019Z,52.60
2022-09-17T17:08:06.957Z,52.70
2022-09-17T17:10:35.756Z,52.40
2022-09-17T17:13:04.004Z,52.20
2022-09-17T17:15:32.223Z,52.20
2022-09-17T17:18:01.979Z,52.30
2022-09-17T17:20:32.043Z,52.50
2022-09-17T17:23:00.223Z,52.50
2022-09-17T17:25:28.634Z,52.90
2022-09-17T17:27:57.191Z,53.00
2022-09-17T17:30:25.449Z,53.30
2022-09-17T17:32:54.230Z,53.30
2022-09-17T17:35:25.031Z,53.60
2022-09-17T17:37:53.192Z,53.90
2022-09-17T17:40:21.449Z,54.00
2022-09-17T17:42:53.361Z,54.10
2022-09-17T17:45:21.614Z,54.50
2022-09-17T17:47:53.348Z,54.00
2022-09-17T17:50:21.622Z,54.20
2022-09-17T17:52:51.078Z,54.30
2022-09-17T17:55:19.262Z,54.80
2022-09-17T17:57:47.485Z,54.70
2022-09-17T18:00:17.007Z,55.00
2022-09-17T18:02:45.277Z,55.10
2022-09-17T18:05:13.603Z,55.10
2022-09-17T18:07:41.891Z,55.50
2022-09-17T18:10:13.141Z,55.70
2022-09-17T18:12:41.342Z,55.90
2022-09-17T18:15:09.973Z,55.80
2022-09-17T18:17:38.138Z,55.70
2022-09-17T18:20:07.071Z,56.00
2022-09-17T18:22:35.789Z,56.00
2022-09-17T18:25:04.198Z,56.10
2022-09-17T18:27:33.939Z,56.30
2022-09-17T18:30:02.096Z,56.60
2022-09-17T18:32:30.451Z,56.60
2022-09-17T18:34:58.587Z,56.70
2022-09-17T18:37:26.827Z,56.70
2022-09-17T18:39:59.387Z,56.90
2022-09-17T18:42:28.080Z,56.90
2022-09-17T18:44:57.955Z,56.80
2022-09-17T18:47:26.230Z,57.10
2022-09-17T18:49:55.184Z,56.90
2022-09-17T18:52:23.480Z,57.10
2022-09-17T18:54:51.687Z,57.10
2022-09-17T18:57:19.867Z,57.10
2022-09-17T18:59:48.520Z,57.10
2022-09-17T19:02:18.019Z,57.20
2022-09-17T19:04:46.137Z,57.50
2022-09-17T19:07:14.317Z,57.60
2022-09-17T19:09:42.429Z,57.60
2022-09-17T19:12:10.572Z,57.70
2022-09-17T19:14:38.707Z,57.90
2022-09-17T19:17:07.147Z,58.00
2022-09-17T19:19:36.769Z,58.00
2022-09-17T19:22:07.730Z,58.10
2022-09-17T19:24:36.367Z,58.20
2022-09-17T19:27:04.674Z,58.80
2022-09-17T19:29:33.081Z,58.30
2022-09-17T19:32:01.274Z,58.30
2022-09-17T19:34:29.418Z,58.50
2022-09-17T19:36:58.916Z,58.40
2022-09-17T19:39:27.028Z,58.60
2022-09-17T19:41:55.205Z,58.60
2022-09-17T19:44:23.833Z,58.70
2022-09-17T19:46:53.167Z,58.90
2022-09-17T19:49:21.554Z,58.90
2022-09-17T19:51:49.675Z,59.10
2022-09-17T19:54:19.330Z,59.10
2022-09-17T19:56:47.529Z,59.40
2022-09-17T19:59:15.656Z,59.40
2022-09-17T20:01:48.564Z,59.30
2022-09-17T20:04:18.095Z,59.40
2022-09-17T20:06:46.260Z,59.50
2022-09-17T20:09:14.466Z,59.50
2022-09-17T20:11:44.689Z,59.50
2022-09-17T20:14:14.068Z,59.60
2022-09-17T20:16:43.509Z,59.50
2022-09-17T20:19:15.874Z,59.60
2022-09-17T20:21:44.241Z,59.70
2022-09-17T20:24:14.356Z,59.50
2022-09-17T20:26:46.158Z,59.50
2022-09-17T20:29:14.251Z,59.60
2022-09-17T20:31:42.750Z,59.50
2022-09-17T20:34:14.988Z,59.50
2022-09-17T20:36:44.131Z,59.50
2022-09-17T20:39:19.425Z,59.60
2022-09-17T20:41:52.562Z,59.50
2022-09-17T20:44:21.091Z,59.80
2022-09-17T20:46:49.422Z,59.70
2022-09-17T20:49:18.855Z,59.80
2022-09-17T20:51:47.293Z,59.90
2022-09-17T20:54:15.886Z,59.80
2022-09-17T20:56:45.049Z,59.90
2022-09-17T20:59:19.291Z,59.90
2022-09-17T21:01:49.787Z,60.10
2022-09-17T21:04:20.306Z,60.10
2022-09-17T21:06:52.186Z,60.20
2022-09-17T21:09:20.811Z,60.40
2022-09-17T21:11:50.472Z,60.30
2022-09-17T21:14:25.582Z,60.60
2022-09-17T21:16:55.750Z,60.80
2022-09-17T21:19:25.584Z,60.80
2022-09-17T21:21:54.855Z,60.80
2022-09-17T21:24:24.334Z,61.00
2022-09-17T21:26:54.195Z,61.00
2022-09-17T21:29:23.849Z,61.10
2022-09-17T21:31:52.992Z,61.20
2022-09-17T21:34:21.352Z,61.10
2022-09-17T21:36:51.485Z,61.00
2022-09-17T21:39:21.021Z,61.00
2022-09-17T21:41:49.163Z,61.00
2022-09-17T21:44:17.427Z,61.00
2022-09-17T21:46:47.064Z,60.90
2022-09-17T21:49:16.459Z,61.20
2022-09-17T21:51:44.635Z,61.10
2022-09-17T21:54:15.962Z,61.10
2022-09-17T21:56:45.027Z,61.30
2022-09-17T21:59:15.069Z,61.20
2022-09-17T22:01:46.566Z,61.40
2022-09-17T22:04:18.181Z,61.30
2022-09-17T22:06:47.354Z,61.80
2022-09-17T22:09:17.689Z,61.60
2022-09-17T22:11:46.279Z,61.60
2022-09-17T22:14:15.697Z,61.80
2022-09-17T22:16:45.925Z,61.90
2022-09-17T22:19:17.060Z,61.90
2022-09-17T22:21:47.487Z,62.00
2022-09-17T22:24:17.412Z,61.90
2022-09-17T22:26:49.898Z,61.80
2022-09-17T22:29:23.106Z,61.90
2022-09-17T22:31:51.444Z,61.90
2022-09-17T22:34:22.524Z,61.90
2022-09-17T22:36:50.878Z,62.10
2022-09-17T22:39:21.441Z,62.00
2022-09-17T22:41:50.153Z,62.00
2022-09-17T22:44:20.628Z,62.00
2022-09-17T22:46:50.502Z,62.20
2022-09-17T22:49:20.602Z,62.20
2022-09-17T22:51:48.777Z,62.40
2022-09-17T22:54:18.860Z,62.50
2022-09-17T22:56:48.021Z,62.80
2022-09-17T22:59:18.095Z,62.70
2022-09-17T23:01:46.516Z,62.70
2022-09-17T23:04:14.703Z,62.90
2022-09-17T23:06:44.379Z,62.90
2022-09-17T23:09:13.293Z,63.30
2022-09-17T23:11:41.425Z,63.20
2022-09-17T23:14:11.538Z,63.10
2022-09-17T23:16:44.789Z,63.40
2022-09-17T23:19:14.299Z,63.90
2022-09-17T23:21:44.272Z,63.40
2022-09-17T23:24:17.549Z,63.70
2022-09-17T23:26:45.680Z,63.70
2022-09-17T23:29:13.947Z,63.50
2022-09-17T23:31:42.452Z,63.60
2022-09-17T23:34:11.338Z,63.80
2022-09-17T23:36:40.435Z,63.90
2022-09-17T23:39:12.067Z,64.60
2022-09-17T23:41:43.195Z,64.20
2022-09-17T23:44:15.671Z,64.20
2022-09-17T23:46:45.732Z,64.30
2022-09-17T23:49:14.952Z,64.30
2022-09-17T23:51:43.584Z,64.40
2022-09-17T23:54:13.321Z,64.50
2022-09-17T23:56:41.710Z,64.70
2022-09-17T23:59:11.437Z,64.60
